createdAt,value
2023-04-19T00:01:23.401Z,66.49
2023-04-19T00:03:52.068Z,66.60
2023-04-19T00:06:21.212Z,66.88
2023-04-19T00:08:49.523Z,67.00
2023-04-19T00:11:19.331Z,67.06
2023-04-19T00:13:49.333Z,66.88
2023-04-19T00:16:18.232Z,66.75
2023-04-19T00:18:46.787Z,67.08
2023-04-19T00:21:15.209Z,66.40
2023-04-19T00:23:43.512Z,66.74
2023-04-19T00:26:15.616Z,66.82
2023-04-19T00:28:49.749Z,66.77
2023-04-19T00:31:18.199Z,67.36
2023-04-19T00:33:46.546Z,66.72
2023-04-19T00:36:14.887Z,67.10
2023-04-19T00:38:43.224Z,67.29
2023-04-19T00:41:12.022Z,67.57
2023-04-19T00:43:40.380Z,68.35
2023-04-19T00:46:10.387Z,68.39
2023-04-19T00:48:40.479Z,68.49
2023-04-19T00:51:10.679Z,67.95
2023-04-19T00:53:40.190Z,68.01
2023-04-19T00:56:09.566Z,68.47
2023-04-19T00:58:40.132Z,68.95
2023-04-19T01:01:09.907Z,68.72
2023-04-19T01:03:38.558Z,68.72
2023-04-19T01:06:07.638Z,69.37
2023-04-19T01:08:36.121Z,68.84
2023-04-19T01:11:04.489Z,69.33
2023-04-19T01:13:32.882Z,69.03
2023-04-19T01:16:01.757Z,68.72
2023-04-19T01:18:37.366Z,68.96
2023-04-19T01:21:07.095Z,69.40
2023-04-19T01:23:36.934Z,69.75
2023-04-19T01:26:05.520Z,69.92
2023-04-19T01:28:34.526Z,70.18
2023-04-19T01:31:03.009Z,70.09
2023-04-19T01:33:31.394Z,69.55
2023-04-19T01:35:59.749Z,69.53
2023-04-19T01:38:28.132Z,70.34
2023-04-19T01:40:57.906Z,70.21
2023-04-19T01:43:26.519Z,70.47
2023-04-19T01:45:54.935Z,70.61
2023-04-19T01:48:23.248Z,69.54
2023-04-19T01:50:51.658Z,70.11
2023-04-19T01:53:20.024Z,69.89
2023-04-19T01:55:48.344Z,70.13
2023-04-19T01:58:18.075Z,70.42
2023-04-19T02:00:47.389Z,70.37
2023-04-19T02:03:15.969Z,70.60
2023-04-19T02:05:44.529Z,70.19
2023-04-19T02:08:12.895Z,70.16
2023-04-19T02:10:41.252Z,69.58
2023-04-19T02:13:09.773Z,70.17
2023-04-19T02:15:39.948Z,69.57
2023-04-19T02:18:08.560Z,70.19
2023-04-19T02:20:36.986Z,69.89
2023-04-19T02:23:05.643Z,70.06
2023-04-19T02:25:35.706Z,70.19
2023-04-19T02:28:04.238Z,70.37
2023-04-19T02:30:33.425Z,70.76
2023-04-19T02:33:04.130Z,70.42
2023-04-19T02:35:32.904Z,70.43
2023-04-19T02:38:03.833Z,70.67
2023-04-19T02:40:32.376Z,71.17
2023-04-19T02:43:00.762Z,70.99
2023-04-19T02:45:29.174Z,71.07
2023-04-19T02:47:58.905Z,71.74
2023-04-19T02:50:29.160Z,71.90
2023-04-19T02:52:58.894Z,72.01
2023-04-19T02:55:29.183Z,72.57
2023-04-19T02:58:06.740Z,72.65
2023-04-19T03:00:40.038Z,72.46
2023-04-19T03:03:12.558Z,72.31
2023-04-19T03:05:42.375Z,73.26
2023-04-19T03:08:12.059Z,72.35
2023-04-19T03:10:41.127Z,72.70
2023-04-19T03:13:10.678Z,72.48
2023-04-19T03:15:39.148Z,73.54
2023-04-19T03:18:07.929Z,72.90
2023-04-19T03:20:38.382Z,72.61
2023-04-19T03:23:08.862Z,73.30
2023-04-19T03:25:37.220Z,73.04
2023-04-19T03:28:20.299Z,73.36
2023-04-19T03:31:08.692Z,73.04
2023-04-19T03:33:37.196Z,73.80
2023-04-19T03:36:06.494Z,73.77
2023-04-19T03:38:37.843Z,73.09
2023-04-19T03:41:20.455Z,73.56
2023-04-19T03:43:51.676Z,73.54
2023-04-19T03:46:21.369Z,73.98
2023-04-19T03:48:52.424Z,73.45
2023-04-19T03:51:21.837Z,74.36
2023-04-19T03:53:51.687Z,73.55
2023-04-19T03:56:21.053Z,74.47
2023-04-19T03:58:52.769Z,73.81
2023-04-19T04:01:21.783Z,74.36
2023-04-19T04:03:51.740Z,74.36
2023-04-19T04:06:20.629Z,73.94
2023-04-19T04:08:49.331Z,74.09
2023-04-19T04:11:19.150Z,74.07
2023-04-19T04:13:50.514Z,74.14
2023-04-19T04:16:23.315Z,74.34
2023-04-19T04:18:54.138Z,74.50
2023-04-19T04:21:27.275Z,74.84
2023-04-19T04:23:58.008Z,75.20
2023-04-19T04:26:39.406Z,74.43
2023-04-19T04:29:15.505Z,75.22
2023-04-19T04:31:44.742Z,75.29
2023-04-19T04:34:15.026Z,75.16
2023-04-19T04:36:51.449Z,74.43
2023-04-19T04:39:21.738Z,75.21
2023-04-19T04:41:51.966Z,74.65
2023-04-19T04:44:22.501Z,74.37
2023-04-19T04:46:50.974Z,74.05
2023-04-19T04:49:25.841Z,74.16
2023-04-19T04:51:54.285Z,75.02
2023-04-19T04:54:23.680Z,74.12
2023-04-19T04:56:54.239Z,74.11
2023-04-19T04:59:23.410Z,74.95
2023-04-19T05:01:51.955Z,74.27
2023-04-19T05:04:21.030Z,74.71
2023-04-19T05:06:49.534Z,74.80
2023-04-19T05:09:23.559Z,74.28
2023-04-19T05:11:53.683Z,74.29
2023-04-19T05:14:22.244Z,74.38
2023-04-19T05:16:50.673Z,74.74
2023-04-19T05:19:19.321Z,74.62
2023-04-19T05:21:54.609Z,74.99
2023-04-19T05:24:23.044Z,74.61
2023-04-19T05:26:54.072Z,74.27
2023-04-19T05:29:22.585Z,74.18
2023-04-19T05:31:54.940Z,73.37
2023-04-19T05:34:27.190Z,72.91
2023-04-19T05:36:57.750Z,72.68
2023-04-19T05:39:26.229Z,72.93
2023-04-19T05:41:56.121Z,71.80
2023-04-19T05:44:24.507Z,72.19
2023-04-19T05:46:53.065Z,71.78
2023-04-19T05:49:36.172Z,71.69
2023-04-19T05:52:30.758Z,71.47
2023-04-19T05:55:01.524Z,71.49
2023-04-19T05:57:31.621Z,71.46
2023-04-19T06:02:46.660Z,70.76
2023-04-19T06:05:16.169Z,70.20
2023-04-19T06:07:54.444Z,69.95
2023-04-19T06:10:24.878Z,70.05
2023-04-19T06:12:56.032Z,69.16
2023-04-19T06:15:26.000Z,69.15
2023-04-19T06:17:54.835Z,68.93
2023-04-19T06:20:23.234Z,68.97
2023-04-19T06:22:51.895Z,68.73
2023-04-19T06:25:20.758Z,67.49
2023-04-19T06:27:49.211Z,68.24
2023-04-19T06:30:19.131Z,68.44
2023-04-19T06:32:47.563Z,67.81
2023-04-19T06:35:16.621Z,67.57
2023-04-19T06:37:45.031Z,67.29
2023-04-19T06:40:13.741Z,67.38
2023-04-19T06:42:42.132Z,66.76
2023-04-19T06:45:12.209Z,67.37
2023-04-19T06:47:42.123Z,67.41
2023-04-19T06:50:11.937Z,66.49
2023-04-19T06:52:40.826Z,66.17
2023-04-19T06:55:11.130Z,66.11
2023-04-19T06:57:39.681Z,65.89
2023-04-19T07:00:10.088Z,66.14
2023-04-19T07:02:38.563Z,66.00
2023-04-19T07:05:09.328Z,67.03
2023-04-19T07:07:41.641Z,65.63
2023-04-19T07:10:12.862Z,66.24
2023-04-19T07:12:41.302Z,65.41
2023-04-19T07:15:11.296Z,65.54
2023-04-19T07:17:39.932Z,65.17
2023-04-19T07:20:12.034Z,65.26
2023-04-19T07:22:40.472Z,64.36
2023-04-19T07:25:10.489Z,64.53
2023-04-19T07:27:38.895Z,64.80
2023-04-19T07:30:09.262Z,63.77
2023-04-19T07:32:37.709Z,64.39
2023-04-19T07:35:07.496Z,65.58
2023-04-19T07:37:37.472Z,64.75
2023-04-19T07:40:07.681Z,63.53
2023-04-19T07:42:36.053Z,62.76
2023-04-19T07:45:05.874Z,62.76
2023-04-19T07:47:34.398Z,62.54
2023-04-19T07:50:03.018Z,61.08
2023-04-19T07:52:31.379Z,61.71
2023-04-19T07:55:01.499Z,61.44
2023-04-19T07:57:29.928Z,60.67
2023-04-19T07:59:59.376Z,59.28
2023-04-19T08:02:28.533Z,57.57
2023-04-19T08:04:58.025Z,56.14
2023-04-19T08:07:26.541Z,54.90
2023-04-19T08:09:55.046Z,54.21
2023-04-19T08:12:35.130Z,53.44
2023-04-19T08:15:29.558Z,53.93
2023-04-19T08:17:58.759Z,53.48
2023-04-19T08:20:27.424Z,53.65
2023-04-19T08:22:55.801Z,52.24
2023-04-19T08:25:26.910Z,51.95
2023-04-19T08:27:57.490Z,51.58
2023-04-19T08:30:26.233Z,50.89
2023-04-19T08:32:56.914Z,51.79
2023-04-19T08:35:26.190Z,50.46
2023-04-19T08:37:54.539Z,50.15
2023-04-19T08:40:23.290Z,50.89
2023-04-19T08:42:51.797Z,50.74
2023-04-19T08:45:28.326Z,50.16
2023-04-19T08:48:02.017Z,49.29
2023-04-19T08:50:35.974Z,49.06
2023-04-19T08:55:58.462Z,49.52
2023-04-19T08:58:51.925Z,48.36
2023-04-19T09:01:34.766Z,47.88
2023-04-19T09:04:31.730Z,47.41
2023-04-19T09:06:56.743Z,47.99
2023-04-19T09:11:59.270Z,47.95
2023-04-19T09:14:29.436Z,47.04
2023-04-19T09:17:17.831Z,46.40
2023-04-19T09:19:50.949Z,47.15
2023-04-19T09:22:20.027Z,47.02
2023-04-19T09:27:29.943Z,46.49
2023-04-19T09:30:00.316Z,46.21
2023-04-19T09:32:43.387Z,45.83
2023-04-19T09:35:11.933Z,45.35
2023-04-19T09:38:02.101Z,45.54
2023-04-19T09:40:30.385Z,45.29
2023-04-19T09:43:11.170Z,42.88
2023-04-19T09:45:47.279Z,42.49
2023-04-19T09:48:17.130Z,42.18
2023-04-19T09:51:03.176Z,42.30
2023-04-19T09:53:35.262Z,42.00
2023-04-19T09:56:06.142Z,41.00
2023-04-19T09:58:46.987Z,40.31
2023-04-19T10:01:22.097Z,40.16
2023-04-19T10:03:53.479Z,40.07
2023-04-19T10:08:55.982Z,40.98
2023-04-19T10:11:26.912Z,39.79
2023-04-19T10:14:00.470Z,40.27
2023-04-19T10:16:29.627Z,40.09
2023-04-19T10:19:00.275Z,39.46
2023-04-19T10:21:31.025Z,38.53
2023-04-19T10:24:01.031Z,38.29
2023-04-19T10:26:29.863Z,38.53
2023-04-19T10:28:58.810Z,38.13
2023-04-19T10:31:28.106Z,38.99
2023-04-19T10:33:58.493Z,38.31
2023-04-19T10:36:29.931Z,38.43
2023-04-19T10:38:58.431Z,38.39
2023-04-19T10:41:58.663Z,38.00
2023-04-19T10:44:27.067Z,37.83
2023-04-19T10:46:55.873Z,36.79
2023-04-19T10:49:27.552Z,36.39
2023-04-19T10:51:56.265Z,35.76
2023-04-19T10:54:32.552Z,35.70
2023-04-19T10:57:04.579Z,35.49
2023-04-19T10:59:34.827Z,34.27
2023-04-19T11:02:05.687Z,34.58
2023-04-19T11:05:02.524Z,33.17
2023-04-19T11:07:39.600Z,32.41
2023-04-19T11:10:09.696Z,32.30
2023-04-19T11:12:38.869Z,32.50
2023-04-19T11:15:10.662Z,31.62
2023-04-19T11:17:39.676Z,30.72
2023-04-19T11:20:12.742Z,30.56
2023-04-19T11:22:43.917Z,32.33
2023-04-19T11:25:14.548Z,30.67
2023-04-19T11:27:44.334Z,30.46
2023-04-19T11:30:22.422Z,30.54
2023-04-19T11:32:53.592Z,29.66
2023-04-19T11:35:25.306Z,28.80
2023-04-19T11:37:54.840Z,28.50
2023-04-19T11:40:26.040Z,28.31
2023-04-19T11:43:00.552Z,28.55
2023-04-19T11:45:33.466Z,29.21
2023-04-19T11:48:07.339Z,30.02
2023-04-19T11:50:39.732Z,29.20
2023-04-19T11:53:14.401Z,29.49
2023-04-19T11:55:47.707Z,28.53
2023-04-19T11:58:32.032Z,28.94
2023-04-19T12:01:09.041Z,29.17
2023-04-19T12:03:49.866Z,28.71
2023-04-19T12:06:24.471Z,29.60
2023-04-19T12:08:55.010Z,29.32
2023-04-19T12:11:26.992Z,29.46
2023-04-19T12:14:09.897Z,32.49
2023-04-19T12:16:38.688Z,29.45
2023-04-19T12:19:14.234Z,28.60
2023-04-19T12:21:44.451Z,27.83
2023-04-19T12:24:16.636Z,27.29
2023-04-19T12:26:56.440Z,25.86
2023-04-19T12:29:24.988Z,26.92
2023-04-19T12:31:53.411Z,25.94
2023-04-19T12:34:22.012Z,27.15
2023-04-19T12:36:51.806Z,28.79
2023-04-19T12:39:20.182Z,28.71
2023-04-19T12:41:49.077Z,28.75
2023-04-19T12:44:17.597Z,28.32
2023-04-19T12:46:46.053Z,28.34
2023-04-19T12:49:14.658Z,27.74
2023-04-19T12:51:43.669Z,27.78
2023-04-19T12:54:13.364Z,26.72
2023-04-19T12:56:41.887Z,27.08
2023-04-19T12:59:11.465Z,27.83
2023-04-19T13:01:39.945Z,27.79
2023-04-19T13:04:11.822Z,27.31
2023-04-19T13:06:41.047Z,27.64
2023-04-19T13:11:42.134Z,27.66
2023-04-19T13:14:10.564Z,27.62
2023-04-19T13:16:39.081Z,27.74
2023-04-19T13:19:07.705Z,27.04
2023-04-19T13:21:36.105Z,26.75
2023-04-19T13:24:04.543Z,26.64
2023-04-19T13:26:34.425Z,26.51
2023-04-19T13:29:04.660Z,23.46
2023-04-19T13:31:33.118Z,22.08
2023-04-19T13:34:02.113Z,21.27
2023-04-19T13:36:31.128Z,20.96
2023-04-19T13:38:59.722Z,20.48
2023-04-19T13:41:28.056Z,21.11
2023-04-19T13:43:56.482Z,21.64
2023-04-19T13:46:26.304Z,21.50
2023-04-19T13:48:54.822Z,21.72
2023-04-19T13:51:23.334Z,23.23
2023-04-19T13:53:51.693Z,23.05
2023-04-19T13:56:20.157Z,23.61
2023-04-19T13:58:48.657Z,23.87
2023-04-19T14:01:17.235Z,24.77
2023-04-19T14:03:47.192Z,24.56
2023-04-19T14:06:15.693Z,24.67
2023-04-19T14:08:45.203Z,24.55
2023-04-19T14:11:13.620Z,25.56
2023-04-19T14:13:42.142Z,24.40
2023-04-19T14:16:10.606Z,24.72
2023-04-19T14:18:39.019Z,24.67
2023-04-19T14:21:08.970Z,25.13
2023-04-19T14:23:37.461Z,24.34
2023-04-19T14:26:06.226Z,24.52
2023-04-19T14:28:34.702Z,24.95
2023-04-19T14:31:03.143Z,25.21
2023-04-19T14:33:32.008Z,25.67
2023-04-19T14:36:00.473Z,25.63
2023-04-19T14:38:30.295Z,25.30
2023-04-19T14:40:58.703Z,25.53
2023-04-19T14:43:27.262Z,26.13
2023-04-19T14:45:55.741Z,25.56
2023-04-19T14:48:24.129Z,25.64
2023-04-19T14:50:52.519Z,25.95
2023-04-19T14:53:20.967Z,25.73
2023-04-19T14:55:50.728Z,26.66
2023-04-19T14:58:19.083Z,26.32
2023-04-19T15:00:47.435Z,26.75
2023-04-19T15:03:16.174Z,26.59
2023-04-19T15:05:44.743Z,26.67
2023-04-19T15:08:29.111Z,26.97
2023-04-19T15:10:59.816Z,26.33
2023-04-19T15:13:29.712Z,26.31
2023-04-19T15:15:59.520Z,26.75
2023-04-19T15:18:29.047Z,26.86
2023-04-19T15:20:57.479Z,27.08
2023-04-19T15:23:26.788Z,27.43
2023-04-19T15:25:55.878Z,26.57
2023-04-19T15:28:26.304Z,27.04
2023-04-19T15:31:00.829Z,27.80
2023-04-19T15:33:29.707Z,28.09
2023-04-19T15:35:59.152Z,27.87
2023-04-19T15:38:31.441Z,27.68
2023-04-19T15:41:00.800Z,27.95
2023-04-19T15:43:30.723Z,28.06
2023-04-19T15:45:59.202Z,28.06
2023-04-19T15:48:29.817Z,27.79
2023-04-19T15:50:59.191Z,28.84
2023-04-19T15:53:27.729Z,29.29
2023-04-19T15:55:56.294Z,29.46
2023-04-19T15:58:25.135Z,29.63
2023-04-19T16:00:55.102Z,29.34
2023-04-19T16:03:23.927Z,29.47
2023-04-19T16:05:52.613Z,29.38
2023-04-19T16:08:21.265Z,29.62
2023-04-19T16:10:51.046Z,29.05
2023-04-19T16:13:19.662Z,29.35
2023-04-19T16:15:48.126Z,29.13
2023-04-19T16:18:17.908Z,29.42
2023-04-19T16:20:46.325Z,29.48
2023-04-19T16:23:14.818Z,29.21
2023-04-19T16:25:43.344Z,29.54
2023-04-19T16:28:11.713Z,29.48
2023-04-19T16:30:40.050Z,29.32
2023-04-19T16:33:08.487Z,29.72
2023-04-19T16:35:38.229Z,29.32
2023-04-19T16:38:07.056Z,29.60
2023-04-19T16:40:35.489Z,29.71
2023-04-19T16:43:04.841Z,29.57
2023-04-19T16:45:33.367Z,29.43
2023-04-19T16:48:01.915Z,29.30
2023-04-19T16:50:30.552Z,29.64
2023-04-19T16:53:00.440Z,29.37
2023-04-19T16:55:28.973Z,29.74
2023-04-19T16:57:57.350Z,29.52
2023-04-19T17:00:26.106Z,29.44
2023-04-19T17:02:54.769Z,30.12
2023-04-19T17:05:23.301Z,30.50
2023-04-19T17:07:52.994Z,30.10
2023-04-19T17:10:26.276Z,30.29
2023-04-19T17:12:55.608Z,30.41
2023-04-19T17:15:23.983Z,30.24
2023-04-19T17:17:52.584Z,30.51
2023-04-19T17:20:21.216Z,30.93
2023-04-19T17:22:49.651Z,30.58
2023-04-19T17:25:18.864Z,30.61
2023-04-19T17:27:49.741Z,30.36
2023-04-19T17:30:18.213Z,30.30
2023-04-19T17:32:46.808Z,30.18
2023-04-19T17:35:16.371Z,30.36
2023-04-19T17:37:44.981Z,30.48
2023-04-19T17:40:14.013Z,30.64
2023-04-19T17:42:42.375Z,30.97
2023-04-19T17:45:13.219Z,31.13
2023-04-19T17:47:42.000Z,31.10
2023-04-19T17:50:13.813Z,31.09
2023-04-19T17:52:42.243Z,31.05
2023-04-19T17:55:11.139Z,31.33
2023-04-19T17:57:40.106Z,31.28
2023-04-19T18:00:11.954Z,31.02
2023-04-19T18:02:40.772Z,31.76
2023-04-19T18:05:09.796Z,31.19
2023-04-19T18:07:38.265Z,30.90
2023-04-19T18:10:08.071Z,31.61
2023-04-19T18:12:36.729Z,30.91
2023-04-19T18:15:07.270Z,31.32
2023-04-19T18:17:37.372Z,31.31
2023-04-19T18:20:07.278Z,31.28
2023-04-19T18:22:35.755Z,31.56
2023-04-19T18:25:04.187Z,31.71
2023-04-19T18:27:32.758Z,31.72
2023-04-19T18:30:03.742Z,32.04
2023-04-19T18:32:32.778Z,32.29
2023-04-19T18:35:04.135Z,31.82
2023-04-19T18:37:32.634Z,32.35
2023-04-19T18:40:01.099Z,32.43
2023-04-19T18:42:29.565Z,32.60
2023-04-19T18:44:57.988Z,32.80
2023-04-19T18:47:27.584Z,32.85
2023-04-19T18:52:28.741Z,33.61
2023-04-19T18:54:58.436Z,33.73
2023-04-19T18:57:27.841Z,33.83
2023-04-19T18:59:57.416Z,33.65
2023-04-19T19:02:27.413Z,33.35
2023-04-19T19:05:01.097Z,33.45
2023-04-19T19:10:10.733Z,33.91
2023-04-19T19:12:46.737Z,33.82
2023-04-19T19:15:15.813Z,34.27
2023-04-19T19:17:49.449Z,35.30
2023-04-19T19:20:19.645Z,35.16
2023-04-19T19:22:49.420Z,34.76
2023-04-19T19:25:17.856Z,35.57
2023-04-19T19:28:02.899Z,35.42
2023-04-19T19:30:34.823Z,35.41
2023-04-19T19:33:04.795Z,35.17
2023-04-19T19:35:33.601Z,35.83
2023-04-19T19:38:03.455Z,35.40
2023-04-19T19:40:32.983Z,35.92
2023-04-19T19:43:02.205Z,36.27
2023-04-19T19:45:31.332Z,36.20
2023-04-19T19:48:00.918Z,35.67
2023-04-19T19:53:03.096Z,35.85
2023-04-19T19:55:31.542Z,36.19
2023-04-19T20:00:44.991Z,35.95
2023-04-19T20:03:28.555Z,36.19
2023-04-19T20:06:17.756Z,36.67
2023-04-19T20:08:51.444Z,36.16
2023-04-19T20:11:24.703Z,36.96
2023-04-19T20:13:53.167Z,36.91
2023-04-19T20:16:21.638Z,36.59
2023-04-19T20:18:50.189Z,36.53
2023-04-19T20:21:19.651Z,37.13
2023-04-19T20:23:48.181Z,37.51
2023-04-19T20:26:17.973Z,37.17
2023-04-19T20:28:46.374Z,37.26
2023-04-19T20:31:14.774Z,37.93
2023-04-19T20:33:43.135Z,37.92
2023-04-19T20:36:13.909Z,37.29
2023-04-19T20:38:42.526Z,37.29
2023-04-19T20:41:10.840Z,37.45
2023-04-19T20:43:40.619Z,38.12
2023-04-19T20:46:09.429Z,38.30
2023-04-19T20:48:38.015Z,38.47
2023-04-19T20:51:06.459Z,39.07
2023-04-19T20:53:35.333Z,38.13
2023-04-19T20:56:03.759Z,37.82
2023-04-19T20:58:33.797Z,38.32
2023-04-19T21:01:03.616Z,37.94
2023-04-19T21:03:32.180Z,38.66
2023-04-19T21:06:00.712Z,38.89
2023-04-19T21:08:29.096Z,39.31
2023-04-19T21:10:57.558Z,39.32
2023-04-19T21:13:26.132Z,39.49
2023-04-19T21:15:54.706Z,39.42
2023-04-19T21:18:24.672Z,39.63
2023-04-19T21:20:53.150Z,40.29
2023-04-19T21:23:21.530Z,39.85
2023-04-19T21:25:49.946Z,39.73
2023-04-19T21:28:18.509Z,39.64
2023-04-19T21:30:47.007Z,40.02
2023-04-19T21:33:17.944Z,39.73
2023-04-19T21:35:47.678Z,40.36
2023-04-19T21:38:16.088Z,39.96
2023-04-19T21:40:44.481Z,39.95
2023-04-19T21:43:12.992Z,39.62
2023-04-19T21:45:41.356Z,39.84
2023-04-19T21:48:09.793Z,40.91
2023-04-19T21:50:38.298Z,41.08
2023-04-19T21:53:08.139Z,41.54
2023-04-19T21:55:36.533Z,41.55
2023-04-19T21:58:04.975Z,41.26
2023-04-19T22:00:33.480Z,42.39
2023-04-19T22:03:01.957Z,41.96
2023-04-19T22:05:30.532Z,41.73
2023-04-19T22:07:58.984Z,41.24
2023-04-19T22:10:31.461Z,42.14
2023-04-19T22:13:00.177Z,41.66
2023-04-19T22:15:28.664Z,42.69
2023-04-19T22:17:58.184Z,42.58
2023-04-19T22:20:27.169Z,42.15
2023-04-19T22:22:55.704Z,42.49
2023-04-19T22:25:24.115Z,43.17
2023-04-19T22:27:53.825Z,42.16
2023-04-19T22:30:22.338Z,42.84
2023-04-19T22:32:51.230Z,43.00
2023-04-19T22:35:22.585Z,42.61
2023-04-19T22:37:51.579Z,42.67
2023-04-19T22:40:20.034Z,42.58
2023-04-19T22:42:48.419Z,42.75
2023-04-19T22:45:18.355Z,42.95
2023-04-19T22:47:46.862Z,43.29
2023-04-19T22:50:15.566Z,43.19
2023-04-19T22:52:44.651Z,42.75
2023-04-19T22:55:13.133Z,43.20
2023-04-19T22:57:43.039Z,43.18
2023-04-19T23:00:12.799Z,42.70
2023-04-19T23:02:42.734Z,42.79
2023-04-19T23:05:11.441Z,43.66
2023-04-19T23:07:42.563Z,43.62
2023-04-19T23:10:12.319Z,43.11
2023-04-19T23:12:40.787Z,43.43
2023-04-19T23:15:11.153Z,43.64
2023-04-19T23:17:40.580Z,44.00
2023-04-19T23:20:12.058Z,43.52
2023-04-19T23:22:40.990Z,44.52
2023-04-19T23:25:10.620Z,44.58
2023-04-19T23:27:39.106Z,44.53
2023-04-19T23:30:09.285Z,44.37
2023-04-19T23:32:37.849Z,45.01
2023-04-19T23:35:06.959Z,45.63
2023-04-19T23:37:36.777Z,45.48
2023-04-19T23:40:06.713Z,45.19
2023-04-19T23:42:35.461Z,44.97
2023-04-19T23:45:03.971Z,45.82
2023-04-19T23:47:32.358Z,45.79
2023-04-19T23:50:01.514Z,46.06
2023-04-19T23:52:29.958Z,45.63
2023-04-19T23:54:59.706Z,45.81
2023-04-19T23:57:28.179Z,46.25
2023-04-19T23:59:56.705Z,45.70
